Time;durP1;ratioP1;P1;durP2;ratioP2;P2;SDS_P1;SDS_P2;PMS_P1;PMS_P2;Temp;Humidity;BMP_temperature;BMP_pressure;BME280_temperature;BME280_humidity;BME280_pressure;Samples;Min_cycle;Max_cycle;Signal;HPM_P1;HPM_P2
2022/11/29 00:01:16;;;;;;;14.68;4.88;;;;;;;4.47;100.00;100524.81;5093880;28;20035;-71
2022/11/29 00:03:42;;;;;;;12.25;4.78;;;;;;;4.45;100.00;100526.97;5077496;28;20032;-71
2022/11/29 00:06:12;;;;;;;14.25;5.10;;;;;;;4.48;100.00;100526.47;5060427;28;20024;-71
2022/11/29 00:08:38;;;;;;;12.30;4.60;;;;;;;4.42;100.00;100519.22;5027362;28;20028;-71
2022/11/29 00:11:05;;;;;;;10.98;5.50;;;;;;;4.38;100.00;100529.09;5044187;28;20024;-71
2022/11/29 00:13:30;;;;;;;16.63;5.22;;;;;;;4.37;100.00;100514.47;5044478;28;20060;-71
2022/11/29 00:16:01;;;;;;;13.93;4.75;;;;;;;4.35;100.00;100519.41;5057180;28;20091;-71
2022/11/29 00:18:26;;;;;;;10.55;5.10;;;;;;;4.37;100.00;100519.16;5071175;28;20025;-71
2022/11/29 00:20:51;;;;;;;15.70;5.10;;;;;;;4.35;100.00;100526.84;5060813;28;20035;-71
2022/11/29 00:23:17;;;;;;;14.88;5.00;;;;;;;4.34;100.00;100516.91;5040472;28;20036;-71
2022/11/29 00:25:42;;;;;;;12.77;4.82;;;;;;;4.32;100.00;100516.31;5043675;28;20023;-71
2022/11/29 00:28:08;;;;;;;13.60;5.05;;;;;;;4.28;100.00;100507.75;5095047;28;20036;-71
2022/11/29 00:30:33;;;;;;;11.63;5.03;;;;;;;4.25;100.00;100522.00;5040491;28;20094;-71
2022/11/29 00:32:59;;;;;;;11.70;4.95;;;;;;;4.20;100.00;100522.75;5057907;28;20024;-71
2022/11/29 00:35:24;;;;;;;18.50;5.15;;;;;;;4.20;100.00;100516.44;5074857;28;20080;-72
2022/11/29 00:37:50;;;;;;;15.05;5.38;;;;;;;4.15;100.00;100522.69;5034641;28;20482;-71
2022/11/29 00:40:15;;;;;;;16.55;5.35;;;;;;;4.10;100.00;100522.63;5077814;28;20032;-71
2022/11/29 00:42:41;;;;;;;13.82;4.68;;;;;;;4.10;100.00;100524.53;5040602;28;20028;-71
2022/11/29 00:45:06;;;;;;;12.80;4.88;;;;;;;4.07;100.00;100525.88;5024119;28;20047;-71
2022/11/29 00:47:32;;;;;;;11.25;4.60;;;;;;;4.05;100.00;100525.28;5040240;28;20495;-71
2022/11/29 00:49:57;;;;;;;13.60;5.00;;;;;;;4.01;100.00;100529.59;5007313;28;20024;-71
2022/11/29 00:52:23;;;;;;;9.85;4.65;;;;;;;3.99;100.00;100529.88;5040497;28;20099;-71
2022/11/29 00:54:48;;;;;;;11.18;4.85;;;;;;;3.95;100.00;100531.44;5040216;28;20021;-71
2022/11/29 00:57:14;;;;;;;13.38;4.57;;;;;;;3.94;100.00;100527.03;5020604;28;20025;-71
2022/11/29 00:59:39;;;;;;;10.88;4.78;;;;;;;3.91;100.00;100527.53;5037197;28;20021;-71
2022/11/29 01:02:05;;;;;;;18.50;5.68;;;;;;;3.88;100.00;100527.19;5032790;28;20094;-71
2022/11/29 01:04:30;;;;;;;13.32;4.50;;;;;;;3.83;100.00;100529.84;5023919;28;20028;-72
2022/11/29 01:06:56;;;;;;;11.27;4.75;;;;;;;3.80;100.00;100534.75;5020369;28;20573;-71
2022/11/29 01:09:21;;;;;;;14.75;4.22;;;;;;;3.76;100.00;100527.25;5057237;28;20033;-72
2022/11/29 01:11:48;;;;;;;10.68;4.63;;;;;;;3.74;100.00;100533.00;5040508;28;20025;-71
2022/11/29 01:14:13;;;;;;;12.75;4.55;;;;;;;3.74;100.00;100534.94;5042091;28;20599;-71
2022/11/29 01:16:39;;;;;;;12.10;4.25;;;;;;;3.69;100.00;100538.41;5056810;28;20057;-71
2022/11/29 01:19:06;;;;;;;10.95;4.43;;;;;;;3.69;100.00;100534.84;5056393;28;20040;-71
2022/11/29 01:21:31;;;;;;;12.52;4.50;;;;;;;3.67;100.00;100534.25;5037236;28;20025;-72
2022/11/29 01:23:57;;;;;;;10.75;4.07;;;;;;;3.66;100.00;100538.91;5043404;28;20551;-71
2022/11/29 01:26:24;;;;;;;8.82;3.90;;;;;;;3.63;100.00;100546.81;5026891;28;20032;-71
2022/11/29 01:28:50;;;;;;;11.55;4.28;;;;;;;3.63;100.00;100542.16;5056635;28;20074;-71
2022/11/29 01:31:21;;;;;;;9.52;4.43;;;;;;;3.60;100.00;100550.06;5060254;28;20020;-71
2022/11/29 01:33:46;;;;;;;15.65;4.60;;;;;;;3.62;100.00;100545.97;5065984;28;20480;-72
2022/11/29 01:36:12;;;;;;;14.07;4.55;;;;;;;3.57;100.00;100543.97;5077814;28;20181;-72
2022/11/29 01:38:38;;;;;;;10.68;4.40;;;;;;;3.60;100.00;100545.41;5044700;28;20035;-71
2022/11/29 01:41:03;;;;;;;10.55;4.47;;;;;;;3.55;100.00;100551.63;5051954;28;20039;-71
2022/11/29 01:43:29;;;;;;;12.07;4.15;;;;;;;3.56;100.00;100568.94;5068685;28;20554;-71
2022/11/29 01:45:54;;;;;;;14.43;4.82;;;;;;;3.58;100.00;100566.78;5071481;28;20781;-71
2022/11/29 01:48:25;;;;;;;14.63;4.72;;;;;;;3.55;100.00;100570.84;5057233;28;20045;-71
2022/11/29 01:50:50;;;;;;;16.75;4.07;;;;;;;3.56;100.00;100568.94;5072125;28;20028;-71
2022/11/29 01:53:16;;;;;;;10.98;4.28;;;;;;;3.60;100.00;100563.78;5076112;28;20024;-72
2022/11/29 01:55:44;;;;;;;12.30;4.53;;;;;;;3.59;100.00;100576.66;5058256;28;20476;-71
2022/11/29 01:58:10;;;;;;;7.90;3.90;;;;;;;3.61;100.00;100563.53;5046497;28;20032;-71
2022/11/29 02:00:35;;;;;;;9.30;3.92;;;;;;;3.62;100.00;100567.09;5052166;28;20036;-71
2022/11/29 02:03:13;;;;;;;9.73;4.00;;;;;;;3.63;100.00;100579.78;5062216;28;20024;-72
2022/11/29 02:05:41;;;;;;;10.25;4.22;;;;;;;3.63;100.00;100577.03;5059863;28;20033;-71
2022/11/29 02:08:06;;;;;;;13.25;4.78;;;;;;;3.63;100.00;100580.59;5042544;28;20477;-72
2022/11/29 02:11:10;;;;;;;16.58;4.55;;;;;;;3.64;100.00;100567.69;5060558;28;20051;-72
2022/11/29 02:13:40;;;;;;;11.75;4.38;;;;;;;3.64;100.00;100582.25;5076197;28;20485;-72
2022/11/29 02:16:35;;;;;;;10.50;4.45;;;;;;;3.66;100.00;100573.78;5059359;28;20036;-72
2022/11/29 02:19:25;;;;;;;7.13;3.88;;;;;;;3.67;100.00;100570.78;5065756;28;20127;-71
2022/11/29 02:21:54;;;;;;;11.45;4.25;;;;;;;3.66;100.00;100582.84;5062990;28;20074;-71
2022/11/29 02:24:31;;;;;;;11.50;4.18;;;;;;;3.69;100.00;100582.38;5058787;28;20028;-71
2022/11/29 02:27:06;;;;;;;11.55;4.05;;;;;;;3.70;100.00;100580.44;5075770;28;20051;-72
2022/11/29 02:29:56;;;;;;;11.77;3.80;;;;;;;3.69;100.00;100574.13;5086883;28;20408;-71
2022/11/29 02:32:47;;;;;;;9.35;3.80;;;;;;;3.71;100.00;100579.38;5075292;28;20033;-71
2022/11/29 02:35:23;;;;;;;13.00;4.32;;;;;;;3.72;100.00;100579.13;5075269;28;20060;-71
2022/11/29 02:38:03;;;;;;;13.23;3.70;;;;;;;3.74;100.00;100574.22;5051036;28;20033;-72
2022/11/29 02:40:36;;;;;;;9.55;3.53;;;;;;;3.75;100.00;100581.38;5055967;28;20040;-71
2022/11/29 02:43:24;;;;;;;17.38;4.43;;;;;;;3.81;100.00;100574.06;5055524;28;20029;-71
2022/11/29 02:45:56;;;;;;;8.88;3.40;;;;;;;3.80;100.00;100573.22;5078561;28;20032;-71
2022/11/29 02:48:21;;;;;;;12.32;4.28;;;;;;;3.83;100.00;100576.56;5061616;28;20084;-71
2022/11/29 02:50:58;;;;;;;14.98;4.10;;;;;;;3.85;100.00;100577.16;5058327;28;20621;-71
2022/11/29 02:53:46;;;;;;;12.90;3.95;;;;;;;3.91;100.00;100570.66;5078654;28;20456;-71
2022/11/29 02:56:32;;;;;;;11.43;4.20;;;;;;;3.92;100.00;100577.81;5078277;28;20020;-71
2022/11/29 02:59:26;;;;;;;9.55;3.85;;;;;;;3.94;100.00;100578.41;5079401;28;20039;-71
2022/11/29 03:02:15;;;;;;;10.00;3.50;;;;;;;3.97;100.00;100581.47;5080944;28;20032;-71
2022/11/29 03:05:08;;;;;;;8.30;4.00;;;;;;;3.97;100.00;100583.41;5062333;28;20058;-72
2022/11/29 03:07:54;;;;;;;11.40;4.00;;;;;;;3.98;100.00;100582.31;5046574;28;20399;-71
2022/11/29 03:10:30;;;;;;;12.68;3.88;;;;;;;3.98;100.00;100582.31;5077553;28;20036;-71
2022/11/29 03:12:55;;;;;;;12.77;4.10;;;;;;;3.97;100.00;100586.16;5057886;28;20033;-71
2022/11/29 03:15:31;;;;;;;9.43;3.58;;;;;;;3.98;100.00;100588.66;5074687;28;20078;-71
2022/11/29 03:18:25;;;;;;;12.88;4.00;;;;;;;3.99;100.00;100582.06;5096290;28;20024;-71
2022/11/29 03:20:57;;;;;;;9.73;3.53;;;;;;;3.99;100.00;100587.56;5042683;28;20024;-71
2022/11/29 03:23:35;;;;;;;9.77;3.30;;;;;;;4.00;100.00;100588.41;5071729;28;20063;-71
2022/11/29 03:26:05;;;;;;;9.63;3.83;;;;;;;3.98;100.00;100590.56;5044784;28;20106;-71
2022/11/29 03:28:50;;;;;;;12.18;4.47;;;;;;;3.96;100.00;100590.00;5042349;28;20464;-71
2022/11/29 03:31:28;;;;;;;7.00;3.63;;;;;;;3.96;100.00;100590.81;5048975;28;20031;-71
2022/11/29 03:34:03;;;;;;;10.88;4.20;;;;;;;3.91;100.00;100592.66;5061060;28;20047;-71
2022/11/29 03:36:49;;;;;;;15.82;4.00;;;;;;;3.92;100.00;100589.63;5048904;28;20086;-71
2022/11/29 03:39:23;;;;;;;8.73;3.55;;;;;;;3.93;100.00;100590.50;5025653;28;20020;-71
2022/11/29 03:41:54;;;;;;;16.02;4.10;;;;;;;3.92;100.00;100588.81;5072721;28;20028;-72
2022/11/29 03:44:23;;;;;;;13.35;4.15;;;;;;;3.89;100.00;100581.88;5061208;28;20036;-71
2022/11/29 03:47:01;;;;;;;11.82;4.07;;;;;;;3.92;100.00;100594.31;5049711;28;20065;-72
2022/11/29 03:49:38;;;;;;;9.70;3.75;;;;;;;3.93;100.00;100596.00;5041475;28;20248;-71
2022/11/29 03:52:23;;;;;;;10.80;4.20;;;;;;;3.93;100.00;100596.00;5057211;28;20036;-71
2022/11/29 03:55:01;;;;;;;10.77;4.03;;;;;;;3.92;100.00;100602.53;5061389;28;20114;-71
2022/11/29 03:57:33;;;;;;;11.27;4.10;;;;;;;3.91;100.00;100593.47;5077517;28;20093;-71
2022/11/29 04:00:09;;;;;;;13.17;4.07;;;;;;;3.94;100.00;100603.13;5057088;28;20024;-71
2022/11/29 04:02:37;;;;;;;6.82;3.60;;;;;;;3.92;100.00;100599.78;5023964;28;20030;-71
2022/11/29 04:05:15;;;;;;;15.55;4.05;;;;;;;3.90;100.00;100607.44;5057542;28;20614;-71
2022/11/29 04:08:09;;;;;;;11.38;3.40;;;;;;;3.90;100.00;100613.78;5075409;28;20024;-71
2022/11/29 04:11:12;;;;;;;10.15;3.38;;;;;;;3.87;100.00;100621.69;5045844;28;20602;-71
2022/11/29 04:14:02;;;;;;;10.88;3.90;;;;;;;3.88;100.00;100615.94;5074184;28;20372;-71
2022/11/29 04:17:08;;;;;;;7.63;2.92;;;;;;;3.84;100.00;100623.00;5068055;28;20032;-71
2022/11/29 04:20:04;;;;;;;9.90;3.67;;;;;;;3.81;100.00;100618.84;4993283;28;20038;-71
2022/11/29 04:22:50;;;;;;;7.85;3.88;;;;;;;3.81;100.00;100627.06;4980703;28;20033;-71
2022/11/29 04:25:24;;;;;;;11.60;3.50;;;;;;;3.74;100.00;100628.34;5012062;28;21478;-71
2022/11/29 04:28:32;;;;;;;8.07;3.17;;;;;;;3.75;100.00;100644.56;4996435;28;20065;-71
2022/11/29 04:31:14;;;;;;;10.25;3.40;;;;;;;3.69;100.00;100642.78;4984814;28;20042;-71
2022/11/29 04:33:55;;;;;;;11.70;3.67;;;;;;;3.65;100.00;100638.88;4979693;28;20089;-72
2022/11/29 04:36:41;;;;;;;12.40;3.15;;;;;;;3.61;100.00;100645.94;4995695;28;20046;-71
2022/11/29 04:39:39;;;;;;;11.75;3.72;;;;;;;3.54;100.00;100642.50;5002268;28;20518;-71
2022/11/29 04:42:23;;;;;;;11.23;3.42;;;;;;;3.54;100.00;100646.09;5000060;28;20033;-71
2022/11/29 04:44:48;;;;;;;9.13;3.35;;;;;;;3.57;100.00;100648.34;5015003;28;20042;-71
2022/11/29 04:47:45;;;;;;;9.65;3.25;;;;;;;3.47;100.00;100650.03;4992730;28;20418;-71
2022/11/29 04:50:36;;;;;;;10.23;3.78;;;;;;;3.46;100.00;100645.63;5025417;28;20036;-71
2022/11/29 04:53:14;;;;;;;8.52;3.03;;;;;;;3.46;100.00;100643.72;5064109;28;20027;-71
2022/11/29 04:55:44;;;;;;;8.88;3.13;;;;;;;3.42;100.00;100644.44;5077598;28;20102;-71
2022/11/29 04:58:48;;;;;;;10.00;3.45;;;;;;;3.39;100.00;100640.28;5056972;28;20032;-71
2022/11/29 05:01:24;;;;;;;10.88;3.33;;;;;;;3.36;100.00;100644.31;5062575;28;20500;-71
2022/11/29 05:03:56;;;;;;;11.85;3.60;;;;;;;3.35;100.00;100653.66;5048017;28;20052;-71
2022/11/29 05:06:24;;;;;;;10.95;3.90;;;;;;;3.34;100.00;100653.88;5047674;28;20114;-71
2022/11/29 05:09:02;;;;;;;10.90;3.72;;;;;;;3.29;100.00;100657.38;5063544;28;20032;-71
2022/11/29 05:11:37;;;;;;;11.43;3.92;;;;;;;3.29;100.00;100657.38;5082123;28;20024;-71
2022/11/29 05:14:40;;;;;;;9.63;3.10;;;;;;;3.23;100.00;100652.88;5064244;28;20510;-71
2022/11/29 05:17:15;;;;;;;8.60;2.95;;;;;;;3.26;100.00;100651.50;5065332;28;20043;-71
2022/11/29 05:19:52;;;;;;;12.15;3.60;;;;;;;3.23;100.00;100652.00;5091726;28;20059;-71
2022/11/29 05:22:30;;;;;;;9.48;3.05;;;;;;;3.20;100.00;100655.22;5080524;28;20526;-71
2022/11/29 05:25:18;;;;;;;9.32;3.10;;;;;;;3.16;100.00;100657.63;5047091;28;20030;-71
2022/11/29 05:28:11;;;;;;;9.38;3.22;;;;;;;3.19;100.00;100665.38;5067785;28;20099;-71
2022/11/29 05:30:46;;;;;;;12.75;2.90;;;;;;;3.19;100.00;100662.63;5065269;28;20031;-71
2022/11/29 05:33:38;;;;;;;6.90;2.75;;;;;;;3.13;100.00;100671.84;5096435;28;20032;-72
2022/11/29 05:36:23;;;;;;;11.27;2.95;;;;;;;3.08;100.00;100672.56;5057631;28;20065;-71
2022/11/29 05:38:55;;;;;;;10.85;2.28;;;;;;;3.07;100.00;100684.63;5027161;28;20021;-71
2022/11/29 05:41:54;;;;;;;7.72;3.05;;;;;;;3.07;100.00;100690.09;5037268;28;20032;-71
2022/11/29 05:44:42;;;;;;;9.02;2.20;;;;;;;3.04;100.00;100690.59;5043358;28;20024;-71
2022/11/29 05:47:09;;;;;;;10.93;2.92;;;;;;;2.97;100.00;100695.34;5060041;28;20028;-71
2022/11/29 05:50:02;;;;;;;9.07;2.50;;;;;;;2.99;100.00;100697.88;5041840;28;20029;-71
2022/11/29 05:53:19;;;;;;;7.25;2.97;;;;;;;2.98;100.00;100693.44;5056705;28;20033;-71
2022/11/29 05:55:52;;;;;;;9.88;3.13;;;;;;;2.95;100.00;100699.41;5036900;28;20043;-71
2022/11/29 05:58:31;;;;;;;11.50;3.47;;;;;;;2.90;100.00;100698.22;5042956;28;20021;-71
2022/11/29 06:01:16;;;;;;;7.38;2.72;;;;;;;2.85;100.00;100706.34;5059748;28;20397;-71
2022/11/29 06:03:50;;;;;;;7.32;3.38;;;;;;;2.85;100.00;100695.34;5039727;28;20025;-71
2022/11/29 06:06:27;;;;;;;11.85;3.03;;;;;;;2.85;100.00;100702.75;5046414;28;20119;-71
2022/11/29 06:08:56;;;;;;;8.65;3.03;;;;;;;2.83;100.00;100696.66;5025504;28;20035;-71
2022/11/29 06:11:49;;;;;;;9.98;3.25;;;;;;;2.82;100.00;100706.81;5028130;28;20032;-71
2022/11/29 06:14:48;;;;;;;12.90;3.33;;;;;;;2.81;100.00;100698.81;5052618;28;20556;-71
2022/11/29 06:17:59;;;;;;;8.27;2.97;;;;;;;2.79;100.00;100703.72;5002298;28;20069;-71
2022/11/29 06:20:42;;;;;;;11.88;3.22;;;;;;;2.72;100.00;100705.72;5022236;28;20036;-71
2022/11/29 06:23:22;;;;;;;6.65;2.80;;;;;;;2.69;100.00;100707.03;5013717;28;20036;-71
2022/11/29 06:26:11;;;;;;;6.00;2.85;;;;;;;2.63;100.00;100711.56;5014091;28;20032;-71
2022/11/29 06:28:50;;;;;;;12.45;3.13;;;;;;;2.60;100.00;100722.19;5038815;28;20108;-71
2022/11/29 06:31:21;;;;;;;9.25;3.00;;;;;;;2.64;100.00;100720.63;5030135;28;20041;-71
2022/11/29 06:33:55;;;;;;;9.45;3.20;;;;;;;2.63;100.00;100729.94;5037041;28;20037;-71
2022/11/29 06:36:31;;;;;;;14.70;3.33;;;;;;;2.62;100.00;100736.50;5033295;28;20053;-71
2022/11/29 06:38:56;;;;;;;8.80;3.10;;;;;;;2.60;100.00;100741.38;5041532;28;20021;-71
2022/11/29 06:41:22;;;;;;;8.93;3.10;;;;;;;2.57;100.00;100750.06;5023246;28;20162;-71
2022/11/29 06:43:48;;;;;;;10.43;2.70;;;;;;;2.57;100.00;100748.16;5006362;28;20124;-71
2022/11/29 06:46:43;;;;;;;9.50;3.20;;;;;;;2.58;100.00;100754.47;5034437;28;20021;-71
2022/11/29 06:49:12;;;;;;;9.85;3.05;;;;;;;2.57;100.00;100755.56;5042124;28;20061;-71
2022/11/29 06:51:48;;;;;;;11.43;3.33;;;;;;;2.56;100.00;100753.88;5036394;28;20037;-71
2022/11/29 06:54:24;;;;;;;9.18;2.97;;;;;;;2.56;100.00;100753.88;5048530;28;20029;-71
2022/11/29 06:57:16;;;;;;;7.25;3.10;;;;;;;2.52;100.00;100749.94;5039635;28;20481;-71
2022/11/29 07:00:00;;;;;;;9.57;3.00;;;;;;;2.50;100.00;100743.84;5006818;28;20025;-71
2022/11/29 07:02:48;;;;;;;10.93;3.50;;;;;;;2.44;100.00;100745.63;5053217;28;20119;-71
2022/11/29 07:05:26;;;;;;;8.60;3.30;;;;;;;2.42;100.00;100748.63;5038213;28;20082;-71
2022/11/29 07:07:54;;;;;;;7.15;3.03;;;;;;;2.44;100.00;100749.19;5041130;28;20054;-71
2022/11/29 07:10:20;;;;;;;9.93;3.50;;;;;;;2.43;100.00;100753.00;5005564;28;20114;-71
2022/11/29 07:12:47;;;;;;;11.27;3.20;;;;;;;2.40;100.00;100752.66;5063798;28;20035;-71
2022/11/29 07:15:19;;;;;;;9.93;3.50;;;;;;;2.39;100.00;100757.28;5022035;28;20078;-71
2022/11/29 07:17:52;;;;;;;9.05;3.28;;;;;;;2.38;100.00;100769.31;5008825;28;20033;-71
2022/11/29 07:20:17;;;;;;;;;;;;;;;2.35;100.00;100761.56;5065135;28;20111;-71
2022/11/29 07:23:01;;;;;;;7.07;3.33;;;;;;;2.33;100.00;100773.84;5038162;28;19955;-71
2022/11/29 07:26:04;;;;;;;9.23;3.28;;;;;;;2.29;100.00;100778.94;5073697;28;20377;-72
2022/11/29 07:28:59;;;;;;;6.53;2.90;;;;;;;2.32;100.00;100775.75;5042253;28;20110;-85
2022/11/29 07:31:34;;;;;;;8.32;3.22;;;;;;;2.31;100.00;100770.47;5048382;28;20047;-71
2022/11/29 07:34:25;;;;;;;9.27;3.30;;;;;;;2.31;100.00;100779.53;5070027;28;20112;-70
2022/11/29 07:37:35;;;;;;;6.35;3.50;;;;;;;2.28;100.00;100782.75;5092577;28;20040;-70
2022/11/29 07:40:20;;;;;;;9.13;3.30;;;;;;;2.28;100.00;100785.47;5083209;28;20091;-70
2022/11/29 07:42:52;;;;;;;4.63;3.08;;;;;;;2.21;100.00;100787.50;5077536;28;20131;-70
2022/11/29 07:45:27;;;;;;;9.70;3.53;;;;;;;2.25;100.00;100796.91;5064824;28;20064;-70
2022/11/29 07:47:52;;;;;;;7.35;3.17;;;;;;;2.26;100.00;100795.88;5060837;28;20031;-70
2022/11/29 07:50:18;;;;;;;11.10;3.70;;;;;;;2.22;100.00;100800.94;5077567;28;20028;-70
2022/11/29 07:52:44;;;;;;;6.82;3.72;;;;;;;2.24;100.00;100808.97;5063541;28;20032;-70
2022/11/29 07:55:14;;;;;;;5.43;3.00;;;;;;;2.24;100.00;100819.91;5032732;28;20024;-70
2022/11/29 07:57:39;;;;;;;10.40;4.07;;;;;;;2.22;100.00;100816.56;5043255;28;20033;-70
2022/11/29 08:00:06;;;;;;;11.90;4.22;;;;;;;2.27;100.00;100819.44;5057672;28;20025;-70
2022/11/29 08:02:31;;;;;;;8.68;3.58;;;;;;;2.30;100.00;100820.91;5056625;28;20096;-70
2022/11/29 08:04:57;;;;;;;6.80;3.90;;;;;;;2.32;100.00;100816.84;5057738;28;20438;-70
2022/11/29 08:07:22;;;;;;;7.20;3.70;;;;;;;2.35;100.00;100824.59;5073683;28;20119;-70
2022/11/29 08:09:48;;;;;;;9.23;4.30;;;;;;;2.41;100.00;100815.44;5050947;28;20031;-70
2022/11/29 08:12:13;;;;;;;8.45;4.00;;;;;;;2.42;100.00;100819.88;5024188;28;20028;-70
2022/11/29 08:14:39;;;;;;;12.50;4.40;;;;;;;2.43;100.00;100824.28;5060722;28;20029;-70
2022/11/29 08:17:04;;;;;;;12.18;4.75;;;;;;;2.50;100.00;100812.38;5060380;28;20032;-70
2022/11/29 08:19:30;;;;;;;7.82;4.63;;;;;;;2.49;100.00;100822.53;5075870;28;20024;-70
2022/11/29 08:21:55;;;;;;;12.25;4.20;;;;;;;2.54;100.00;100830.88;5044539;28;20031;-70
2022/11/29 08:24:21;;;;;;;14.80;5.00;;;;;;;2.53;100.00;100828.38;5099733;28;20036;-70
2022/11/29 08:26:46;;;;;;;8.63;4.80;;;;;;;2.55;100.00;100831.72;5039827;28;20480;-70
2022/11/29 08:29:12;;;;;;;9.02;4.65;;;;;;;2.62;100.00;100837.94;5057477;28;20023;-70
2022/11/29 08:31:38;;;;;;;9.85;4.72;;;;;;;2.61;100.00;100836.25;5058325;28;20400;-70
2022/11/29 08:34:06;;;;;;;9.98;4.18;;;;;;;2.70;100.00;100837.59;5071360;28;20058;-71
2022/11/29 08:36:32;;;;;;;9.02;5.00;;;;;;;2.72;100.00;100837.38;5078900;28;20040;-70
2022/11/29 08:38:58;;;;;;;10.57;4.47;;;;;;;2.76;100.00;100844.91;5074893;28;20460;-70
2022/11/29 08:41:23;;;;;;;8.07;4.72;;;;;;;2.81;100.00;100847.75;5047470;28;20039;-70
2022/11/29 08:43:48;;;;;;;9.43;4.50;;;;;;;2.85;100.00;100848.97;5081048;28;20031;-70
2022/11/29 08:46:14;;;;;;;11.18;4.70;;;;;;;2.89;100.00;100854.81;5053475;28;20058;-70
2022/11/29 08:48:39;;;;;;;7.35;4.55;;;;;;;2.94;100.00;100859.63;5098604;28;20039;-70
2022/11/29 08:51:05;;;;;;;7.75;4.35;;;;;;;3.00;100.00;100867.72;5080816;28;20438;-70
2022/11/29 08:53:44;;;;;;;11.38;4.75;;;;;;;3.05;100.00;100870.63;5047608;28;20107;-70
2022/11/29 08:56:14;;;;;;;8.82;4.82;;;;;;;3.14;100.00;100877.41;5064057;28;20024;-70
2022/11/29 08:58:40;;;;;;;9.70;4.38;;;;;;;3.24;100.00;100879.59;5060741;28;20021;-70
2022/11/29 09:01:16;;;;;;;7.10;4.43;;;;;;;3.34;100.00;100877.13;5073280;28;20535;-70
2022/11/29 09:06:28;;;;;;;9.02;4.07;;;;;;;3.60;100.00;100882.38;5061115;28;20036;-70
2022/11/29 09:08:55;;;;;;;10.65;4.90;;;;;;;3.72;100.00;100881.28;5079927;28;20031;-70
2022/11/29 09:11:21;;;;;;;9.93;4.97;;;;;;;3.87;100.00;100880.78;5060653;28;20040;-71
2022/11/29 09:13:49;;;;;;;7.93;5.07;;;;;;;4.01;100.00;100890.47;5059648;28;20024;-71
2022/11/29 09:16:19;;;;;;;9.75;4.97;;;;;;;4.19;100.00;100886.72;5060855;28;20126;-70
2022/11/29 09:18:45;;;;;;;11.57;4.88;;;;;;;4.36;100.00;100884.03;5044523;28;20051;-71
2022/11/29 09:21:12;;;;;;;17.50;6.45;;;;;;;4.55;100.00;100879.22;5049870;28;20597;-71
2022/11/29 09:23:38;;;;;;;15.35;7.28;;;;;;;4.75;100.00;100888.94;5057088;28;20035;-71
2022/11/29 09:26:04;;;;;;;11.90;5.55;;;;;;;4.89;100.00;100899.38;5070654;28;20052;-71
2022/11/29 09:28:30;;;;;;;14.73;7.57;;;;;;;5.06;100.00;100890.31;5061848;28;20051;-71
2022/11/29 09:31:03;;;;;;;13.32;6.47;;;;;;;5.20;100.00;100901.84;5084815;28;20403;-71
2022/11/29 09:33:29;;;;;;;11.30;5.40;;;;;;;5.32;100.00;100900.72;5063396;28;20765;-71
2022/11/29 09:35:56;;;;;;;17.08;6.32;;;;;;;5.44;100.00;100906.13;5066197;28;20041;-71
2022/11/29 09:38:22;;;;;;;17.55;6.85;;;;;;;5.59;100.00;100898.09;5058104;28;20048;-71
2022/11/29 09:40:52;;;;;;;12.82;5.38;;;;;;;5.70;100.00;100893.59;5036782;28;20036;-71
2022/11/29 09:43:21;;;;;;;12.18;5.63;;;;;;;5.83;100.00;100896.00;5072718;28;20040;-71
2022/11/29 09:45:47;;;;;;;17.95;5.93;;;;;;;5.97;100.00;100898.44;5098085;28;20043;-71
2022/11/29 09:48:19;;;;;;;12.48;6.25;;;;;;;6.12;100.00;100903.31;5046924;28;20028;-71
2022/11/29 09:51:26;;;;;;;15.98;6.57;;;;;;;6.30;100.00;100911.28;5055472;28;20040;-71
2022/11/29 09:54:18;;;;;;;16.88;6.25;;;;;;;6.46;100.00;100915.91;5030319;28;20043;-71
2022/11/29 09:56:45;;;;;;;14.35;7.03;;;;;;;6.58;100.00;100918.53;5054741;28;20397;-71
2022/11/29 09:59:24;;;;;;;15.07;6.03;;;;;;;6.72;100.00;100918.97;5078638;28;20484;-71
2022/11/29 10:01:57;;;;;;;11.35;5.05;;;;;;;6.87;100.00;100926.59;5062670;28;20046;-71
2022/11/29 10:04:26;;;;;;;11.80;5.35;;;;;;;7.01;100.00;100933.38;5060124;28;20467;-71
2022/11/29 10:06:54;;;;;;;9.60;5.18;;;;;;;7.12;100.00;100923.25;5059374;28;20032;-71
2022/11/29 10:09:31;;;;;;;19.73;6.28;;;;;;;7.22;100.00;100926.13;5078640;28;20016;-71
2022/11/29 10:12:20;;;;;;;16.75;5.28;;;;;;;7.31;100.00;100926.50;5059794;28;20436;-71
2022/11/29 10:14:52;;;;;;;15.30;5.45;;;;;;;7.37;100.00;100926.25;5075914;28;20555;-71
2022/11/29 10:17:30;;;;;;;16.75;5.93;;;;;;;7.43;100.00;100915.25;5071101;28;20041;-71
2022/11/29 10:20:05;;;;;;;14.68;5.38;;;;;;;7.46;100.00;100918.31;5072167;28;20102;-71
2022/11/29 10:22:36;;;;;;;13.13;5.45;;;;;;;7.52;100.00;100919.19;5059263;28;20040;-71
2022/11/29 10:25:01;;;;;;;9.93;4.38;;;;;;;7.53;100.00;100920.88;5057036;28;20042;-71
2022/11/29 10:27:28;;;;;;;14.68;5.55;;;;;;;7.59;100.00;100923.41;5062634;28;20024;-71
2022/11/29 10:29:54;;;;;;;14.45;5.05;;;;;;;7.67;100.00;100933.16;5049307;28;20512;-71
2022/11/29 10:32:21;;;;;;;13.35;4.88;;;;;;;7.72;100.00;100935.97;5097162;28;20032;-71
2022/11/29 10:34:47;;;;;;;10.77;4.88;;;;;;;7.79;100.00;100939.31;5044352;28;20090;-71
2022/11/29 10:37:15;;;;;;;20.65;5.50;;;;;;;7.86;100.00;100938.28;5068850;28;20082;-71
2022/11/29 10:39:44;;;;;;;14.63;4.80;;;;;;;7.92;100.00;100931.69;5059495;28;20085;-71
2022/11/29 10:45:15;;;;;;;17.70;4.97;;;;;;;8.05;100.00;100926.53;5096397;28;20028;-71
2022/11/29 10:47:42;;;;;;;12.68;4.60;;;;;;;8.10;100.00;100922.94;5058775;28;20037;-71
2022/11/29 10:50:14;;;;;;;15.48;4.55;;;;;;;8.16;100.00;100916.34;5065151;28;20028;-71
2022/11/29 10:52:39;;;;;;;17.77;5.50;;;;;;;8.21;100.00;100921.06;5082037;28;20036;-71
2022/11/29 10:55:05;;;;;;;15.05;4.90;;;;;;;8.25;100.00;100917.50;5076339;28;20028;-71
2022/11/29 10:57:31;;;;;;;12.88;4.32;;;;;;;8.29;100.00;100915.84;5028224;28;20507;-71
2022/11/29 11:00:08;;;;;;;12.80;4.70;;;;;;;8.35;100.00;100905.63;5074963;28;20472;-71
2022/11/29 11:02:34;;;;;;;12.18;4.35;;;;;;;8.40;100.00;100915.94;5047309;28;20051;-71
2022/11/29 11:04:59;;;;;;;14.98;4.82;;;;;;;8.46;100.00;100917.63;5041277;28;20668;-71
2022/11/29 11:07:35;;;;;;;16.50;5.50;;;;;;;8.47;100.00;100905.47;5077909;28;20042;-71
2022/11/29 11:10:16;;;;;;;14.52;4.75;;;;;;;8.56;100.00;100898.28;5074765;28;20074;-71
2022/11/29 11:12:41;;;;;;;11.98;4.93;;;;;;;8.62;100.00;100902.75;5061581;28;20028;-71
2022/11/29 11:15:26;;;;;;;11.68;4.05;;;;;;;8.69;100.00;100902.47;5058365;28;20043;-71
2022/11/29 11:18:03;;;;;;;16.98;4.88;;;;;;;8.73;100.00;100903.59;5096535;28;20032;-71
2022/11/29 11:20:30;;;;;;;12.32;4.25;;;;;;;8.81;100.00;100899.50;5074746;28;20029;-71
2022/11/29 11:23:04;;;;;;;12.52;4.28;;;;;;;8.89;100.00;100904.50;5069878;28;20028;-71
2022/11/29 11:25:33;;;;;;;11.45;4.38;;;;;;;8.94;100.00;100910.03;5056793;28;20035;-71
2022/11/29 11:28:20;;;;;;;16.55;4.30;;;;;;;9.03;100.00;100910.34;5073917;28;20025;-71
2022/11/29 11:31:07;;;;;;;12.15;3.72;;;;;;;9.09;100.00;100910.06;5056065;28;20480;-71
2022/11/29 11:33:52;;;;;;;11.65;4.35;;;;;;;9.17;100.00;100909.53;5045048;28;20569;-71
2022/11/29 11:36:18;;;;;;;10.45;3.90;;;;;;;9.18;100.00;100911.19;5082475;28;20044;-71
2022/11/29 11:38:50;;;;;;;10.32;4.13;;;;;;;9.20;100.00;100908.16;5077532;28;20456;-71
2022/11/29 11:41:21;;;;;;;12.55;4.45;;;;;;;9.20;100.00;100918.41;5060981;28;20619;-71
2022/11/29 11:43:57;;;;;;;13.07;4.63;;;;;;;9.19;100.00;100909.25;5079057;28;20055;-71
2022/11/29 11:46:46;;;;;;;10.20;4.15;;;;;;;9.17;100.00;100908.69;5059963;28;20036;-71
2022/11/29 11:49:12;;;;;;;13.07;3.85;;;;;;;9.15;100.00;100910.91;5044619;28;20035;-71
2022/11/29 11:51:40;;;;;;;13.43;4.40;;;;;;;9.14;100.00;100906.47;5061383;28;20559;-71
2022/11/29 11:54:12;;;;;;;8.68;3.85;;;;;;;9.11;100.00;100905.09;5071285;28;20447;-71
2022/11/29 11:56:38;;;;;;;12.23;4.00;;;;;;;9.11;100.00;100905.09;5061037;28;20392;-71
2022/11/29 11:59:03;;;;;;;11.20;3.80;;;;;;;9.10;100.00;100900.63;5094787;28;20036;-71